sensor_id;sensor_type;location;lat;lon;timestamp;temperature;humidity
65235;DHT22;51820;48.374;10.930;2022-11-27T00:01:32;4.00;74.60
65235;DHT22;51820;48.374;10.930;2022-11-27T00:06:30;4.00;75.30
65235;DHT22;51820;48.374;10.930;2022-11-27T00:09:02;4.00;75.30
65235;DHT22;51820;48.374;10.930;2022-11-27T00:21:28;3.80;75.50
65235;DHT22;51820;48.374;10.930;2022-11-27T00:23:57;3.80;75.30
65235;DHT22;51820;48.374;10.930;2022-11-27T00:26:28;3.80;75.50
65235;DHT22;51820;48.374;10.930;2022-11-27T00:31:33;3.60;75.90
65235;DHT22;51820;48.374;10.930;2022-11-27T00:34:05;3.70;75.90
65235;DHT22;51820;48.374;10.930;2022-11-27T00:36:34;3.70;76.10
65235;DHT22;51820;48.374;10.930;2022-11-27T00:41:32;3.70;76.00
65235;DHT22;51820;48.374;10.930;2022-11-27T00:46:32;3.80;76.30
65235;DHT22;51820;48.374;10.930;2022-11-27T00:49:03;3.80;76.10
65235;DHT22;51820;48.374;10.930;2022-11-27T00:56:30;3.70;75.70
65235;DHT22;51820;48.374;10.930;2022-11-27T00:58:59;3.70;75.70
65235;DHT22;51820;48.374;10.930;2022-11-27T01:01:30;3.70;75.60
65235;DHT22;51820;48.374;10.930;2022-11-27T01:03:59;3.70;75.40
65235;DHT22;51820;48.374;10.930;2022-11-27T01:06:29;3.60;75.50
65235;DHT22;51820;48.374;10.930;2022-11-27T01:08:58;3.60;75.40
65235;DHT22;51820;48.374;10.930;2022-11-27T01:11:28;3.50;75.60
65235;DHT22;51820;48.374;10.930;2022-11-27T01:14:00;3.50;76.00
65235;DHT22;51820;48.374;10.930;2022-11-27T01:16:29;3.50;75.60
65235;DHT22;51820;48.374;10.930;2022-11-27T01:18:58;3.50;75.80
65235;DHT22;51820;48.374;10.930;2022-11-27T01:21:29;3.40;75.50
65235;DHT22;51820;48.374;10.930;2022-11-27T01:28:56;3.40;76.10
65235;DHT22;51820;48.374;10.930;2022-11-27T01:31:28;3.30;75.80
65235;DHT22;51820;48.374;10.930;2022-11-27T01:33:58;3.30;75.90
65235;DHT22;51820;48.374;10.930;2022-11-27T01:41:25;3.30;75.50
65235;DHT22;51820;48.374;10.930;2022-11-27T01:43:55;3.20;75.30
65235;DHT22;51820;48.374;10.930;2022-11-27T01:46:33;3.20;75.20
65235;DHT22;51820;48.374;10.930;2022-11-27T01:49:20;3.20;75.30
65235;DHT22;51820;48.374;10.930;2022-11-27T01:51:51;3.10;75.30
65235;DHT22;51820;48.374;10.930;2022-11-27T01:54:21;3.10;75.70
65235;DHT22;51820;48.374;10.930;2022-11-27T01:56:55;3.10;75.70
65235;DHT22;51820;48.374;10.930;2022-11-27T02:01:54;3.10;75.80
65235;DHT22;51820;48.374;10.930;2022-11-27T02:11:52;3.10;75.90
65235;DHT22;51820;48.374;10.930;2022-11-27T02:14:28;3.10;76.10
65235;DHT22;51820;48.374;10.930;2022-11-27T02:17:04;3.20;76.00
65235;DHT22;51820;48.374;10.930;2022-11-27T02:19:49;3.20;75.70
65235;DHT22;51820;48.374;10.930;2022-11-27T02:22:35;3.20;75.80
65235;DHT22;51820;48.374;10.930;2022-11-27T02:25:10;3.20;75.60
65235;DHT22;51820;48.374;10.930;2022-11-27T02:28:01;3.20;76.10
65235;DHT22;51820;48.374;10.930;2022-11-27T02:30:37;3.20;76.70
65235;DHT22;51820;48.374;10.930;2022-11-27T02:33:10;3.20;76.70
65235;DHT22;51820;48.374;10.930;2022-11-27T02:35:41;3.20;76.80
65235;DHT22;51820;48.374;10.930;2022-11-27T02:38:15;3.20;76.60
65235;DHT22;51820;48.374;10.930;2022-11-27T02:40:49;3.20;76.50
65235;DHT22;51820;48.374;10.930;2022-11-27T02:43:21;3.20;76.60
65235;DHT22;51820;48.374;10.930;2022-11-27T02:45:52;3.20;76.90
65235;DHT22;51820;48.374;10.930;2022-11-27T02:48:24;3.20;76.60
65235;DHT22;51820;48.374;10.930;2022-11-27T02:53:27;3.20;76.60
65235;DHT22;51820;48.374;10.930;2022-11-27T02:55:57;3.20;77.00
65235;DHT22;51820;48.374;10.930;2022-11-27T02:58:28;3.20;76.60
65235;DHT22;51820;48.374;10.930;2022-11-27T03:00:59;3.20;76.70
65235;DHT22;51820;48.374;10.930;2022-11-27T03:03:32;3.10;76.70
65235;DHT22;51820;48.374;10.930;2022-11-27T03:06:06;3.20;76.80
65235;DHT22;51820;48.374;10.930;2022-11-27T03:08:40;5.70;77.90
65235;DHT22;51820;48.374;10.930;2022-11-27T03:11:10;3.20;76.50
65235;DHT22;51820;48.374;10.930;2022-11-27T03:13:42;3.10;76.30
65235;DHT22;51820;48.374;10.930;2022-11-27T03:16:16;0.90;92.60
65235;DHT22;51820;48.374;10.930;2022-11-27T03:18:58;3.00;76.80
65235;DHT22;51820;48.374;10.930;2022-11-27T03:21:31;3.00;77.00
65235;DHT22;51820;48.374;10.930;2022-11-27T03:26:29;2.90;77.40
65235;DHT22;51820;48.374;10.930;2022-11-27T03:28:59;2.90;77.30
65235;DHT22;51820;48.374;10.930;2022-11-27T03:31:31;2.90;77.40
65235;DHT22;51820;48.374;10.930;2022-11-27T03:34:00;2.90;77.50
65235;DHT22;51820;48.374;10.930;2022-11-27T03:41:33;3.00;76.90
65235;DHT22;51820;48.374;10.930;2022-11-27T03:44:08;3.00;77.10
65235;DHT22;51820;48.374;10.930;2022-11-27T03:46:58;3.00;77.20
65235;DHT22;51820;48.374;10.930;2022-11-27T03:49:39;2.90;77.40
65235;DHT22;51820;48.374;10.930;2022-11-27T03:52:13;3.00;77.50
65235;DHT22;51820;48.374;10.930;2022-11-27T03:54:54;3.00;77.30
65235;DHT22;51820;48.374;10.930;2022-11-27T03:57:29;3.00;76.90
65235;DHT22;51820;48.374;10.930;2022-11-27T04:00:02;2.90;76.80
65235;DHT22;51820;48.374;10.930;2022-11-27T04:02:41;3.00;76.70
65235;DHT22;51820;48.374;10.930;2022-11-27T04:07:38;3.00;76.50
65235;DHT22;51820;48.374;10.930;2022-11-27T04:10:08;3.00;76.00
65235;DHT22;51820;48.374;10.930;2022-11-27T04:15:06;2.90;76.10
65235;DHT22;51820;48.374;10.930;2022-11-27T04:20:06;4.70;77.40
65235;DHT22;51820;48.374;10.930;2022-11-27T04:25:04;3.00;76.60
65235;DHT22;51820;48.374;10.930;2022-11-27T04:37:28;2.90;76.70
65235;DHT22;51820;48.374;10.930;2022-11-27T04:54:50;2.70;76.50
65235;DHT22;51820;48.374;10.930;2022-11-27T05:12:18;2.60;76.90
65235;DHT22;51820;48.374;10.930;2022-11-27T05:29:42;2.60;76.10
65235;DHT22;51820;48.374;10.930;2022-11-27T05:42:13;3.20;93.20
65235;DHT22;51820;48.374;10.930;2022-11-27T05:44:43;2.50;76.00
65235;DHT22;51820;48.374;10.930;2022-11-27T05:54:37;2.30;76.30
65235;DHT22;51820;48.374;10.930;2022-11-27T06:02:04;2.40;75.80
65235;DHT22;51820;48.374;10.930;2022-11-27T06:19:25;2.50;74.40
65235;DHT22;51820;48.374;10.930;2022-11-27T06:24:23;2.40;74.10
65235;DHT22;51820;48.374;10.930;2022-11-27T06:36:48;2.50;74.00
65235;DHT22;51820;48.374;10.930;2022-11-27T06:54:11;1.90;75.00
65235;DHT22;51820;48.374;10.930;2022-11-27T06:59:11;1.90;75.40
65235;DHT22;51820;48.374;10.930;2022-11-27T07:04:09;1.80;75.00
65235;DHT22;51820;48.374;10.930;2022-11-27T07:11:38;1.60;74.70
65235;DHT22;51820;48.374;10.930;2022-11-27T07:19:05;1.70;75.20
65235;DHT22;51820;48.374;10.930;2022-11-27T07:21:36;1.70;75.30
65235;DHT22;51820;48.374;10.930;2022-11-27T07:24:05;1.40;75.20
65235;DHT22;51820;48.374;10.930;2022-11-27T07:26:34;1.70;77.80
65235;DHT22;51820;48.374;10.930;2022-11-27T07:29:06;1.80;75.10
65235;DHT22;51820;48.374;10.930;2022-11-27T07:44:08;2.80;75.60
65235;DHT22;51820;48.374;10.930;2022-11-27T08:01:30;1.90;75.70
65235;DHT22;51820;48.374;10.930;2022-11-27T08:11:27;2.10;75.90
65235;DHT22;51820;48.374;10.930;2022-11-27T08:13:57;2.10;76.00
65235;DHT22;51820;48.374;10.930;2022-11-27T08:18:58;2.20;75.90
65235;DHT22;51820;48.374;10.930;2022-11-27T08:21:27;2.20;76.50
65235;DHT22;51820;48.374;10.930;2022-11-27T08:36:23;2.60;75.90
65235;DHT22;51820;48.374;10.930;2022-11-27T08:49:04;2.70;76.20
65235;DHT22;51820;48.374;10.930;2022-11-27T08:54:03;2.90;76.60
65235;DHT22;51820;48.374;10.930;2022-11-27T09:06:31;3.30;74.90
65235;DHT22;51820;48.374;10.930;2022-11-27T09:09:04;3.30;74.70
65235;DHT22;51820;48.374;10.930;2022-11-27T09:11:33;3.30;74.70
65235;DHT22;51820;48.374;10.930;2022-11-27T09:21:33;3.50;75.10
65235;DHT22;51820;48.374;10.930;2022-11-27T09:24:05;3.70;75.20
65235;DHT22;51820;48.374;10.930;2022-11-27T09:36:54;4.60;72.30
65235;DHT22;51820;48.374;10.930;2022-11-27T09:42:04;4.70;71.40
65235;DHT22;51820;48.374;10.930;2022-11-27T09:44:40;4.90;70.30
65235;DHT22;51820;48.374;10.930;2022-11-27T09:47:15;4.80;72.30
65235;DHT22;51820;48.374;10.930;2022-11-27T09:49:52;4.70;69.70
65235;DHT22;51820;48.374;10.930;2022-11-27T09:52:31;4.60;70.20
65235;DHT22;51820;48.374;10.930;2022-11-27T09:55:25;4.50;70.90
65235;DHT22;51820;48.374;10.930;2022-11-27T09:58:06;4.50;71.50
65235;DHT22;51820;48.374;10.930;2022-11-27T10:00:42;4.40;71.50
65235;DHT22;51820;48.374;10.930;2022-11-27T10:03:12;4.40;71.30
65235;DHT22;51820;48.374;10.930;2022-11-27T10:05:45;4.30;71.50
65235;DHT22;51820;48.374;10.930;2022-11-27T10:08:32;4.20;71.60
65235;DHT22;51820;48.374;10.930;2022-11-27T10:11:12;4.10;71.70
65235;DHT22;51820;48.374;10.930;2022-11-27T10:13:54;4.10;72.70
65235;DHT22;51820;48.374;10.930;2022-11-27T10:16:32;4.00;73.20
65235;DHT22;51820;48.374;10.930;2022-11-27T10:19:29;4.00;73.00
65235;DHT22;51820;48.374;10.930;2022-11-27T10:22:03;3.90;73.80
65235;DHT22;51820;48.374;10.930;2022-11-27T10:24:40;4.00;74.00
65235;DHT22;51820;48.374;10.930;2022-11-27T10:27:15;4.00;74.10
65235;DHT22;51820;48.374;10.930;2022-11-27T10:29:49;4.00;74.10
65235;DHT22;51820;48.374;10.930;2022-11-27T10:32:21;3.80;73.80
65235;DHT22;51820;48.374;10.930;2022-11-27T10:35:12;3.90;76.20
65235;DHT22;51820;48.374;10.930;2022-11-27T10:37:51;3.10;74.20
65235;DHT22;51820;48.374;10.930;2022-11-27T10:40:26;5.90;76.50
65235;DHT22;51820;48.374;10.930;2022-11-27T10:43:01;3.80;74.80
65235;DHT22;51820;48.374;10.930;2022-11-27T10:45:38;3.80;74.70
65235;DHT22;51820;48.374;10.930;2022-11-27T10:53:10;3.80;74.90
65235;DHT22;51820;48.374;10.930;2022-11-27T10:55:56;3.80;75.30
65235;DHT22;51820;48.374;10.930;2022-11-27T10:58:31;3.80;75.80
65235;DHT22;51820;48.374;10.930;2022-11-27T11:01:02;3.70;78.70
65235;DHT22;51820;48.374;10.930;2022-11-27T11:06:15;3.80;76.60
65235;DHT22;51820;48.374;10.930;2022-11-27T11:08:58;3.70;75.30
65235;DHT22;51820;48.374;10.930;2022-11-27T11:11:31;3.60;75.50
65235;DHT22;51820;48.374;10.930;2022-11-27T11:16:41;3.70;75.50
65235;DHT22;51820;48.374;10.930;2022-11-27T11:19:22;3.70;75.90
65235;DHT22;51820;48.374;10.930;2022-11-27T11:24:24;3.70;75.70
65235;DHT22;51820;48.374;10.930;2022-11-27T11:26:58;3.70;75.90
65235;DHT22;51820;48.374;10.930;2022-11-27T11:29:46;3.60;75.90
65235;DHT22;51820;48.374;10.930;2022-11-27T11:32:57;3.60;76.30
65235;DHT22;51820;48.374;10.930;2022-11-27T11:35:33;3.60;75.70
65235;DHT22;51820;48.374;10.930;2022-11-27T11:41:02;3.50;76.50
65235;DHT22;51820;48.374;10.930;2022-11-27T11:43:57;3.50;76.10
65235;DHT22;51820;48.374;10.930;2022-11-27T11:47:13;3.50;76.50
65235;DHT22;51820;48.374;10.930;2022-11-27T11:49:50;3.50;76.70
65235;DHT22;51820;48.374;10.930;2022-11-27T11:53:01;3.50;76.70
65235;DHT22;51820;48.374;10.930;2022-11-27T11:56:04;3.50;77.20
65235;DHT22;51820;48.374;10.930;2022-11-27T11:58:57;3.50;76.90
65235;DHT22;51820;48.374;10.930;2022-11-27T12:02:14;3.50;76.80
65235;DHT22;51820;48.374;10.930;2022-11-27T12:10:02;3.50;77.40
65235;DHT22;51820;48.374;10.930;2022-11-27T12:12:48;3.50;77.60
65235;DHT22;51820;48.374;10.930;2022-11-27T12:15:28;3.40;77.30
65235;DHT22;51820;48.374;10.930;2022-11-27T12:18:00;3.50;77.50
65235;DHT22;51820;48.374;10.930;2022-11-27T12:20:46;3.50;77.40
65235;DHT22;51820;48.374;10.930;2022-11-27T12:23:52;3.50;77.70
65235;DHT22;51820;48.374;10.930;2022-11-27T12:26:34;3.40;77.60
65235;DHT22;51820;48.374;10.930;2022-11-27T12:29:23;0.20;92.20
65235;DHT22;51820;48.374;10.930;2022-11-27T12:32:21;3.50;77.50
65235;DHT22;51820;48.374;10.930;2022-11-27T12:35:06;3.50;77.20
65235;DHT22;51820;48.374;10.930;2022-11-27T12:37:50;3.40;77.00
65235;DHT22;51820;48.374;10.930;2022-11-27T12:40:43;3.40;77.40
65235;DHT22;51820;48.374;10.930;2022-11-27T12:43:19;3.40;77.90
65235;DHT22;51820;48.374;10.930;2022-11-27T12:46:04;3.40;77.90
65235;DHT22;51820;48.374;10.930;2022-11-27T12:48:54;3.40;78.00
65235;DHT22;51820;48.374;10.930;2022-11-27T12:51:28;3.40;78.90
65235;DHT22;51820;48.374;10.930;2022-11-27T12:54:05;3.40;78.40
65235;DHT22;51820;48.374;10.930;2022-11-27T12:56:40;5.00;79.30
65235;DHT22;51820;48.374;10.930;2022-11-27T12:59:13;3.50;78.30
65235;DHT22;51820;48.374;10.930;2022-11-27T13:02:16;6.80;93.90
65235;DHT22;51820;48.374;10.930;2022-11-27T13:04:56;3.50;78.10
65235;DHT22;51820;48.374;10.930;2022-11-27T13:07:29;3.50;78.60
65235;DHT22;51820;48.374;10.930;2022-11-27T13:10:15;3.50;78.70
65235;DHT22;51820;48.374;10.930;2022-11-27T13:12:52;2.60;79.40
65235;DHT22;51820;48.374;10.930;2022-11-27T13:15:26;3.60;78.00
65235;DHT22;51820;48.374;10.930;2022-11-27T13:18:06;3.60;78.10
65235;DHT22;51820;48.374;10.930;2022-11-27T13:20:39;3.70;78.00
65235;DHT22;51820;48.374;10.930;2022-11-27T13:23:14;3.70;77.70
65235;DHT22;51820;48.374;10.930;2022-11-27T13:25:50;3.70;78.50
65235;DHT22;51820;48.374;10.930;2022-11-27T13:28:24;3.70;78.20
65235;DHT22;51820;48.374;10.930;2022-11-27T13:30:53;3.70;77.50
65235;DHT22;51820;48.374;10.930;2022-11-27T13:33:35;3.70;77.50
65235;DHT22;51820;48.374;10.930;2022-11-27T13:36:18;3.70;77.80
65235;DHT22;51820;48.374;10.930;2022-11-27T13:38:54;3.70;77.90
65235;DHT22;51820;48.374;10.930;2022-11-27T13:41:30;3.70;77.90
65235;DHT22;51820;48.374;10.930;2022-11-27T13:46:44;3.80;78.60
65235;DHT22;51820;48.374;10.930;2022-11-27T13:49:24;3.80;78.30
65235;DHT22;51820;48.374;10.930;2022-11-27T13:52:04;3.80;78.30
65235;DHT22;51820;48.374;10.930;2022-11-27T13:54:38;3.80;78.30
65235;DHT22;51820;48.374;10.930;2022-11-27T13:57:15;3.90;78.10
65235;DHT22;51820;48.374;10.930;2022-11-27T13:59:58;3.90;77.60
65235;DHT22;51820;48.374;10.930;2022-11-27T14:02:41;3.90;78.00
65235;DHT22;51820;48.374;10.930;2022-11-27T14:05:14;3.90;77.40
65235;DHT22;51820;48.374;10.930;2022-11-27T14:07:47;3.80;77.30
65235;DHT22;51820;48.374;10.930;2022-11-27T14:10:21;3.50;76.90
65235;DHT22;51820;48.374;10.930;2022-11-27T14:12:54;3.80;77.00
65235;DHT22;51820;48.374;10.930;2022-11-27T14:15:30;3.80;77.40
65235;DHT22;51820;48.374;10.930;2022-11-27T14:18:12;3.80;77.70
65235;DHT22;51820;48.374;10.930;2022-11-27T14:20:46;3.80;78.00
65235;DHT22;51820;48.374;10.930;2022-11-27T14:23:26;3.80;78.10
65235;DHT22;51820;48.374;10.930;2022-11-27T14:26:03;3.80;77.90
65235;DHT22;51820;48.374;10.930;2022-11-27T14:28:40;3.70;77.50
65235;DHT22;51820;48.374;10.930;2022-11-27T14:31:22;1.80;78.40
65235;DHT22;51820;48.374;10.930;2022-11-27T14:33:56;3.70;77.30
65235;DHT22;51820;48.374;10.930;2022-11-27T14:36:51;3.70;77.60
65235;DHT22;51820;48.374;10.930;2022-11-27T14:39:38;3.70;77.90
65235;DHT22;51820;48.374;10.930;2022-11-27T14:42:49;3.70;78.50
65235;DHT22;51820;48.374;10.930;2022-11-27T14:45:21;3.60;80.50
65235;DHT22;51820;48.374;10.930;2022-11-27T14:47:51;3.70;78.50
65235;DHT22;51820;48.374;10.930;2022-11-27T14:55:57;3.70;78.50
65235;DHT22;51820;48.374;10.930;2022-11-27T14:58:30;3.70;77.70
65235;DHT22;51820;48.374;10.930;2022-11-27T15:01:03;3.70;77.90
65235;DHT22;51820;48.374;10.930;2022-11-27T15:03:57;3.60;78.40
65235;DHT22;51820;48.374;10.930;2022-11-27T15:06:31;2.30;77.30
65235;DHT22;51820;48.374;10.930;2022-11-27T15:09:23;3.60;78.20
65235;DHT22;51820;48.374;10.930;2022-11-27T15:12:12;3.60;79.40
65235;DHT22;51820;48.374;10.930;2022-11-27T15:14:46;3.60;77.90
65235;DHT22;51820;48.374;10.930;2022-11-27T15:17:27;3.60;77.70
65235;DHT22;51820;48.374;10.930;2022-11-27T15:19:59;3.60;78.00
65235;DHT22;51820;48.374;10.930;2022-11-27T15:25:00;3.50;78.90
65235;DHT22;51820;48.374;10.930;2022-11-27T15:27:47;3.50;78.70
65235;DHT22;51820;48.374;10.930;2022-11-27T15:30:18;3.60;78.90
65235;DHT22;51820;48.374;10.930;2022-11-27T15:32:55;3.50;78.50
65235;DHT22;51820;48.374;10.930;2022-11-27T15:38:17;3.50;79.00
65235;DHT22;51820;48.374;10.930;2022-11-27T15:40:56;3.50;79.00
65235;DHT22;51820;48.374;10.930;2022-11-27T15:46:04;3.50;79.20
65235;DHT22;51820;48.374;10.930;2022-11-27T15:49:11;3.50;79.60
65235;DHT22;51820;48.374;10.930;2022-11-27T20:51:49;2.70;85.80
65235;DHT22;51820;48.374;10.930;2022-11-27T21:04:22;3.10;83.60
65235;DHT22;51820;48.374;10.930;2022-11-27T21:06:53;3.10;83.10
65235;DHT22;51820;48.374;10.930;2022-11-27T21:22:09;3.10;82.30
65235;DHT22;51820;48.374;10.930;2022-11-27T21:37:29;3.00;82.50
65235;DHT22;51820;48.374;10.930;2022-11-27T21:42:29;3.10;83.40
65235;DHT22;51820;48.374;10.930;2022-11-27T21:47:30;3.10;82.90
65235;DHT22;51820;48.374;10.930;2022-11-27T21:52:33;3.10;82.50
65235;DHT22;51820;48.374;10.930;2022-11-27T22:00:07;3.10;83.10
65235;DHT22;51820;48.374;10.930;2022-11-27T22:05:07;3.90;83.30
65235;DHT22;51820;48.374;10.930;2022-11-27T22:07:36;3.10;82.80
65235;DHT22;51820;48.374;10.930;2022-11-27T22:10:13;1.40;82.00
65235;DHT22;51820;48.374;10.930;2022-11-27T22:15:11;3.80;84.70
65235;DHT22;51820;48.374;10.930;2022-11-27T22:20:12;3.20;82.70
65235;DHT22;51820;48.374;10.930;2022-11-27T22:22:48;3.20;82.60
65235;DHT22;51820;48.374;10.930;2022-11-27T22:27:45;3.10;82.80
65235;DHT22;51820;48.374;10.930;2022-11-27T22:32:45;3.30;82.80
65235;DHT22;51820;48.374;10.930;2022-11-27T22:37:44;3.20;82.60
65235;DHT22;51820;48.374;10.930;2022-11-27T22:40:17;3.20;82.70
65235;DHT22;51820;48.374;10.930;2022-11-27T22:45:41;3.20;82.60
65235;DHT22;51820;48.374;10.930;2022-11-27T22:53:14;3.20;82.60
65235;DHT22;51820;48.374;10.930;2022-11-27T23:00:43;3.20;82.60
65235;DHT22;51820;48.374;10.930;2022-11-27T23:08:25;3.20;82.70
65235;DHT22;51820;48.374;10.930;2022-11-27T23:10:57;3.30;82.30
65235;DHT22;51820;48.374;10.930;2022-11-27T23:23:27;3.30;82.40
65235;DHT22;51820;48.374;10.930;2022-11-27T23:26:01;3.20;82.40
65235;DHT22;51820;48.374;10.930;2022-11-27T23:28:51;3.20;82.30
65235;DHT22;51820;48.374;10.930;2022-11-27T23:31:33;3.20;82.40
65235;DHT22;51820;48.374;10.930;2022-11-27T23:39:18;3.20;82.40
65235;DHT22;51820;48.374;10.930;2022-11-27T23:54:14;3.20;82.20
65235;DHT22;51820;48.374;10.930;2022-11-27T23:56:53;3.20;82.50
